Stations météo

réclame
Mon MeteoGroup
Zeebrugge, Belgique (6418): Température de l'air & dewpoint: 20.05.2018 23:00:00 - 26.05.2018 23:00:00 (CEST)Zeebrugge, Belgique (6418): Vitesse du vent & gusts: 20.05.2018 23:00:00 - 26.05.2018 23:00:00 (CEST)Zeebrugge, Belgique (6418): Direction du vent: 20.05.2018 23:00:00 - 26.05.2018 23:00:00 (CEST)Zeebrugge, Belgique (6418): reduced air pressure: 20.05.2018 23:00:00 - 26.05.2018 23:00:00 (CEST)Zeebrugge, Belgique (6418): Ensoleillement: 20.05.2018 23:00:00 - 26.05.2018 23:00:00 (CEST)Zeebrugge, Belgique (6418): Quantités de précipitations: 20.05.2018 23:00:00 - 26.05.2018 23:00:00 (CEST)
Date & Time tt [°C] td [°C] ff [km/h] ff [knt] fx [km/h] fx [knt] dd ppp [hPa] sd [min] rr [mm]
26.05.2018 23:00:00 20,0 16,0 19 10 24 13 ENE 1018,0 0 0,0
26.05.2018 22:00:00 19,2 15,5 17 9 22 12 NE 1018,0 0 0,0
26.05.2018 21:00:00 18,5 14,6 14 8 22 12 NE 1017,8 54 0,0
26.05.2018 20:00:00 19,2 14,9 18 10 32 17 NE 1017,6 60 0,0
26.05.2018 19:00:00 19,0 14,9 27 15 44 24 NE 1017,7 60 0,0
26.05.2018 18:00:00 19,4 15,5 29 16 36 19 NNE 1017,9 60 0,0
26.05.2018 17:00:00 18,7 15,5 23 13 28 15 NNE 1018,3 60 0,0
26.05.2018 16:00:00 18,2 15,6 21 11 25 14 NNE 1018,8 60 0,0
26.05.2018 15:00:00 18,5 16,5 16 9 22 12 NNE 1019,2 60 0,0
26.05.2018 14:00:00 17,9 16,5 17 9 21 11 NNE 1019,4 60 0,0
26.05.2018 13:00:00 18,1 16,9 13 7 16 9 NNE 1019,3 60 0,0
26.05.2018 12:00:00 17,5 16,4 9 5 12 7 N 1019,5 60 0,0
26.05.2018 11:00:00 16,5 15,6 6 3 10 5 NNE 1019,7 36 0,0
26.05.2018 10:00:00 15,3 14,5 5 3 10 6 N 1019,6 0 0,0
26.05.2018 09:00:00 15,0 14,3 7 4 9 5 NW 1019,5 0 0,0
26.05.2018 08:00:00 14,4 13,6 6 3 10 6 NNE 1019,2 0 0,0
26.05.2018 07:00:00 13,9 13,2 6 3 16 8 SSW 1018,9 0 0,0
26.05.2018 06:00:00 14,2 13,5 6 3 16 8 SE 1019,0 0 0,0
26.05.2018 05:00:00 13,7 13,0 12 7 16 9 N 1018,6 0 0,0
26.05.2018 04:00:00 13,4 12,7 13 7 16 8 NNE 1018,8 0 0,0
26.05.2018 03:00:00 13,2 12,6 12 7 15 8 N 1019,0 0 0,0
26.05.2018 02:00:00 13,1 12,5 11 6 16 9 NNE 1019,3 0 0,0
26.05.2018 01:00:00 12,7 12,1 13 7 16 9 N 1019,4 0 0,0
26.05.2018 00:00:00 12,6 11,9 11 6 16 9 N 1019,4 0 0,0
25.05.2018 23:00:00 12,8 12,1 14 7 18 10 N 1019,6 0 0,0
25.05.2018 22:00:00 13,0 12,1 16 8 24 13 N 1019,6 0 0,0
25.05.2018 21:00:00 13,4 12,4 17 9 22 12 N 1019,1 0 0,0
25.05.2018 20:00:00 13,8 12,6 14 8 19 10 N 1019,3 0 0,0
25.05.2018 19:00:00 14,4 13,0 17 9 23 12 NNW 1018,6 21 0,0
25.05.2018 18:00:00 15,9 14,5 18 10 22 12 NNW 1018,8 60 0,0
25.05.2018 17:00:00 16,4 15,2 14 8 19 11 NW 1019,2 60 0,0
25.05.2018 16:00:00 16,2 15,2 14 7 19 10 WNW 1019,3 25 0,0
25.05.2018 15:00:00 15,9 15,2 11 6 16 9 WNW 1019,2 4 0,0
25.05.2018 14:00:00 14,7 14,0 11 6 17 9 W 1019,2 0 0,0
25.05.2018 13:00:00 14,0 13,4 13 7 19 10 W 1019,1 0 0,0
25.05.2018 12:00:00 14,2 13,5 14 8 18 10 W 1018,7 0 0,0
25.05.2018 11:00:00 14,9 14,3 6 4 15 8 SSW 1018,5 0 0,0
25.05.2018 10:00:00 14,7 14,0 9 5 12 7 SSW 1018,1 0 0,0
25.05.2018 09:00:00 14,4 13,7 10 6 16 9 SSW 1017,9 0 0,0
25.05.2018 08:00:00 14,3 13,5 11 6 16 9 S 1017,5 0 0,0
25.05.2018 07:00:00 14,2 13,3 10 5 18 10 S 1017,0 0 0,0
25.05.2018 06:00:00 14,2 13,3 8 5 10 5 SE 1016,7 0 0,0
25.05.2018 05:00:00 14,2 13,1 4 2 12 7 SE 1016,3 0 0,0
25.05.2018 04:00:00 15,2 14,1 8 5 12 6 S 1016,3 0 0,0
25.05.2018 03:00:00 15,6 14,3 9 5 13 7 E 1016,3 0 0,0
25.05.2018 02:00:00 15,4 14,1 11 6 19 10 E 1016,3 0 0,0
25.05.2018 01:00:00 15,4 13,9 7 4 13 7 E 1017,0 0 0,0
25.05.2018 00:00:00 15,8 14,2 14 7 29 16 ENE 1016,9 0 1,2
24.05.2018 23:00:00 16,0 14,2 8 4 14 7 NE 1017,0 0 0,1
24.05.2018 22:00:00 16,0 14,0 5 3 18 10 SE 1016,5 0 4,4
24.05.2018 21:00:00 16,1 13,7 16 9 38 21 S 1016,8 0 6,0
24.05.2018 20:00:00 17,1 14,5 14 8 20 11 NNE 1016,3 0 0,0
24.05.2018 19:00:00 16,8 14,0 18 10 26 14 NNE 1016,2 26 0,0
24.05.2018 18:00:00 16,5 13,2 23 12 29 16 NNE 1016,4 52 0,0
24.05.2018 17:00:00 16,6 13,1 25 13 36 20 NNE 1016,7 60 0,0
24.05.2018 16:00:00 17,0 13,4 25 13 34 18 NNE 1017,3 57 0,0
24.05.2018 15:00:00 18,2 13,6 21 11 33 18 NE 1017,7 41 0,0
24.05.2018 14:00:00 18,1 13,1 25 14 31 17 NNE 1018,2 59 0,0
24.05.2018 13:00:00 18,4 12,1 17 9 24 13 NNE 1018,7 60 0,0
24.05.2018 12:00:00 19,1 12,4 20 11 27 14 NE 1019,0 60 0,0
24.05.2018 11:00:00 18,0 12,1 22 12 27 14 NE 1019,4 33 0,0
24.05.2018 10:00:00 16,7 11,6 17 9 22 12 ENE 1019,4 0 0,0
24.05.2018 09:00:00 16,1 11,5 18 10 27 15 ENE 1019,7 9 0,0
24.05.2018 08:00:00 15,9 11,4 18 10 27 14 ENE 1019,5 58 0,0
24.05.2018 07:00:00 16,1 11,9 20 11 28 15 NE 1019,5 15 0,0
24.05.2018 06:00:00 15,8 12,2 16 9 22 12 NE 1019,8 0 0,0
24.05.2018 05:00:00 16,6 14,3 14 7 19 10 NE 1019,8 0 0,0
24.05.2018 04:00:00 15,3 13,5 8 4 9 5 N 1020,0 0 0,0
24.05.2018 03:00:00 15,8 14,0 5 3 10 5 WSW 1020,4 0 0,0
24.05.2018 02:00:00 16,2 14,3 4 2 12 6 NNE 1020,8 0 0,0
24.05.2018 01:00:00 16,2 14,3 10 5 17 9 NE 1020,4 0 0,0
24.05.2018 00:00:00 15,4 13,3 13 7 17 9 NNE 1020,4 0 0,0
23.05.2018 23:00:00 16,4 14,0 9 5 25 13 N 1020,4 0 0,5
23.05.2018 22:00:00 16,8 14,3 27 14 39 21 ENE 1020,7 0 1,0
23.05.2018 21:00:00 15,6 13,0 25 14 32 18 NNE 1019,7 - -
23.05.2018 20:00:00 15,7 13,2 25 14 39 21 NNE 1019,5 53 0,0
23.05.2018 19:00:00 15,6 13,3 23 12 29 16 NNE 1019,5 57 0,0
23.05.2018 18:00:00 15,7 13,5 23 13 31 17 NNE 1019,9 58 0,0
23.05.2018 17:00:00 15,7 13,7 25 13 35 19 NNE 1020,0 56 0,0
23.05.2018 16:00:00 15,7 14,1 21 11 29 15 NNE 1020,5 51 0,0
23.05.2018 15:00:00 15,2 14,0 24 13 30 16 NNE 1020,9 60 0,0
23.05.2018 14:00:00 14,2 13,2 19 10 27 15 NNE 1021,2 51 0,0
23.05.2018 13:00:00 14,5 13,5 21 11 28 15 NNW 1021,0 17 0,0
23.05.2018 12:00:00 13,4 12,3 23 13 31 17 N 1020,9 0 0,6
23.05.2018 11:00:00 13,6 12,4 21 11 30 16 N 1020,6 0 0,4
23.05.2018 10:00:00 13,5 12,2 26 14 36 19 N 1020,5 0 0,0
23.05.2018 09:00:00 13,4 12,0 26 14 31 17 N 1019,9 0 0,0
23.05.2018 08:00:00 13,5 12,0 22 12 28 15 N 1019,3 0 0,0
23.05.2018 07:00:00 13,3 11,6 23 12 33 18 N 1018,6 0 0,0
23.05.2018 06:00:00 13,2 11,3 29 16 37 20 N 1018,3 0 0,1
23.05.2018 05:00:00 13,5 11,3 29 16 38 20 N 1018,1 0 0,0
23.05.2018 04:00:00 13,6 11,2 31 17 40 22 N 1017,6 0 0,0
23.05.2018 03:00:00 13,7 11,2 30 16 40 22 N 1017,8 0 0,0
23.05.2018 02:00:00 13,9 11,6 29 16 39 21 N 1017,4 0 0,0
23.05.2018 01:00:00 13,9 11,6 30 16 39 21 N 1017,4 0 0,0
23.05.2018 00:00:00 14,0 11,6 27 15 32 17 N 1017,1 0 0,0
22.05.2018 23:00:00 14,1 11,5 26 14 34 18 NNW 1016,6 0 0,0
22.05.2018 22:00:00 14,4 11,8 22 12 31 17 NNW 1016,3 0 0,0
22.05.2018 21:00:00 14,5 11,8 19 10 29 16 N 1015,9 24 0,0
22.05.2018 20:00:00 14,8 11,8 22 12 32 17 N 1015,4 13 0,0
22.05.2018 19:00:00 15,6 12,2 23 13 32 17 N 1015,3 60 0,0
22.05.2018 18:00:00 15,6 12,2 26 14 31 17 N 1014,8 60 0,0
22.05.2018 17:00:00 15,8 12,5 25 14 32 17 N 1014,3 60 0,0
22.05.2018 16:00:00 15,7 12,3 23 12 27 15 NNW 1014,2 60 0,0
22.05.2018 15:00:00 15,8 11,9 21 11 26 14 NNW 1014,4 60 0,0
22.05.2018 14:00:00 17,6 12,2 18 10 27 15 NNW 1014,3 60 0,0
22.05.2018 13:00:00 17,7 12,3 21 11 27 15 NW 1013,9 60 0,0
22.05.2018 12:00:00 17,1 13,1 17 9 21 11 NW 1013,8 60 0,0
22.05.2018 11:00:00 16,5 12,7 16 9 23 12 NNE 1013,6 60 0,0
22.05.2018 10:00:00 15,9 13,0 16 9 19 11 NNE 1013,5 44 0,0
22.05.2018 09:00:00 14,6 12,0 10 6 18 10 N 1013,4 33 0,0
22.05.2018 08:00:00 14,6 11,9 11 6 16 9 NNW 1012,9 31 0,0
22.05.2018 07:00:00 14,7 11,6 9 5 25 13 NE 1012,5 8 0,0
22.05.2018 06:00:00 15,1 11,5 18 10 25 13 NNE 1012,1 0 0,0
22.05.2018 05:00:00 15,0 10,9 4 2 19 11 N 1011,9 0 0,0
22.05.2018 04:00:00 15,5 12,3 14 7 20 11 NE 1011,5 0 0,0
22.05.2018 03:00:00 15,5 11,7 7 4 18 10 NW 1012,3 0 0,0
22.05.2018 02:00:00 15,8 11,2 4 2 15 8 NNE 1012,4 0 0,0
22.05.2018 01:00:00 15,7 10,4 16 9 38 21 NNE 1012,3 0 0,0
22.05.2018 00:00:00 19,2 11,8 24 13 36 20 E 1011,7 0 0,2
21.05.2018 23:00:00 17,2 11,5 26 14 31 17 E 1012,6 0 0,0
21.05.2018 22:00:00 17,9 12,5 27 14 44 24 ESE 1012,7 0 0,0
21.05.2018 21:00:00 15,5 11,4 21 11 30 16 NNE 1012,3 6 0,0
21.05.2018 20:00:00 15,5 11,3 22 12 29 16 N 1012,0 58 0,0
21.05.2018 19:00:00 15,6 11,6 24 13 34 19 N 1012,2 60 0,0
21.05.2018 18:00:00 15,4 11,3 22 12 30 16 N 1012,6 60 0,0
21.05.2018 17:00:00 16,1 11,0 27 15 35 19 N 1013,1 60 0,0
21.05.2018 16:00:00 16,0 11,2 25 13 31 17 N 1013,7 60 0,0
21.05.2018 15:00:00 16,1 11,8 25 14 31 17 NNE 1014,0 31 0,0
21.05.2018 14:00:00 15,6 12,0 22 12 26 14 NNE 1014,7 30 0,0
21.05.2018 13:00:00 15,4 13,0 9 5 16 9 N 1015,3 15 0,1
21.05.2018 12:00:00 14,7 12,5 13 7 19 11 NE 1015,7 1 0,0
21.05.2018 11:00:00 14,8 13,1 9 5 19 10 NNE 1016,0 12 0,0
21.05.2018 10:00:00 14,0 12,5 15 8 26 14 ENE 1016,4 0 0,2
21.05.2018 09:00:00 13,7 12,3 6 3 16 9 NNE 1016,3 0 0,0
21.05.2018 08:00:00 13,8 12,4 11 6 14 8 ENE 1017,2 0 0,0
21.05.2018 07:00:00 13,5 12,1 10 6 14 8 NE 1017,1 0 0,0
21.05.2018 06:00:00 13,3 11,9 6 3 12 7 NNE 1017,4 0 0,0
21.05.2018 05:00:00 12,9 11,3 7 4 8 4 N 1017,6 0 0,0
21.05.2018 04:00:00 13,8 12,0 4 2 6 4 SSE 1018,2 0 0,0
21.05.2018 03:00:00 13,8 12,0 4 2 15 8 ESE 1019,0 0 0,0
21.05.2018 02:00:00 14,5 12,7 11 6 15 8 NE 1019,0 0 0,0
21.05.2018 01:00:00 14,4 12,7 4 2 11 6 NE 1019,3 0 0,0
21.05.2018 00:00:00 13,7 12,1 12 6 16 9 E 1019,8 0 0,0
20.05.2018 23:00:00 13,0 11,5 11 6 30 16 NNE 1020,1 0 0,0

tt = Température de l'air
td = dewpoint
ff = Vitesse du vent
fx = gusts
dd = Direction du vent
ppp = reduced air pressure
sd = Ensoleillement
rr = Quantités de précipitations

stations d'obs. à proximité